Time;durP1;ratioP1;P1;durP2;ratioP2;P2;SDS_P1;SDS_P2;PMS_P1;PMS_P2;Temp;Humidity;BMP_temperature;BMP_pressure;BME280_temperature;BME280_humidity;BME280_pressure;Samples;Min_cycle;Max_cycle;Signal;HPM_P1;HPM_P2
2021/05/28 00:02:16;;;;;;;7.90;7.10;;;;;;;13.11;66.36;97112.72;5048167;28;20221;-66
2021/05/28 00:04:42;;;;;;;8.00;7.10;;;;;;;12.90;67.97;97110.63;5051350;28;20286;-65
2021/05/28 00:07:08;;;;;;;9.60;8.47;;;;;;;12.73;68.73;97118.56;5043878;28;20214;-65
2021/05/28 00:09:34;;;;;;;10.40;8.73;;;;;;;12.86;69.18;97106.69;5046437;28;20433;-66
2021/05/28 00:12:00;;;;;;;10.50;8.67;;;;;;;13.14;68.21;97106.28;5047916;28;20433;-65
2021/05/28 00:14:26;;;;;;;9.67;8.57;;;;;;;13.07;68.14;97098.25;5049412;28;20210;-66
2021/05/28 00:16:52;;;;;;;15.20;8.93;;;;;;;12.97;68.77;97105.53;5051554;28;20455;-65
2021/05/28 00:19:17;;;;;;;14.40;9.37;;;;;;;12.83;69.96;97104.44;5049882;28;20437;-65
2021/05/28 00:21:43;;;;;;;13.43;10.10;;;;;;;13.13;68.91;97113.38;5047167;28;20183;-67
2021/05/28 00:24:09;;;;;;;15.97;11.63;;;;;;;12.88;70.07;97118.72;5049239;28;20332;-67
2021/05/28 00:26:34;;;;;;;12.83;11.47;;;;;;;13.26;69.00;97107.53;5051399;28;20699;-66
2021/05/28 00:29:00;;;;;;;12.87;11.50;;;;;;;13.03;70.08;97118.81;5035443;28;20192;-66
2021/05/28 00:31:25;;;;;;;15.47;12.70;;;;;;;13.15;69.48;97116.66;5041313;28;20275;-66
2021/05/28 00:33:51;;;;;;;14.73;12.13;;;;;;;13.29;68.92;97123.00;5050911;28;20630;-65
2021/05/28 00:36:18;;;;;;;14.10;12.50;;;;;;;13.24;69.67;97124.50;5050572;28;20337;-66
2021/05/28 00:38:44;;;;;;;15.80;14.00;;;;;;;12.97;70.91;97124.78;5050580;28;20619;-66
2021/05/28 00:41:12;;;;;;;15.67;13.97;;;;;;;13.11;70.98;97120.59;5051006;28;20947;-66
2021/05/28 00:43:37;;;;;;;17.30;14.53;;;;;;;12.95;71.13;97116.22;5050576;28;20986;-67
2021/05/28 00:46:03;;;;;;;17.37;15.57;;;;;;;12.83;71.35;97123.66;5049531;28;20457;-67
2021/05/28 00:48:28;;;;;;;16.27;14.10;;;;;;;13.35;70.13;97121.47;5050223;28;20248;-66
2021/05/28 00:50:54;;;;;;;16.97;14.33;;;;;;;13.03;70.57;97118.00;5048940;28;20214;-67
2021/05/28 00:53:22;;;;;;;14.60;13.00;;;;;;;13.30;69.59;97118.53;5050547;28;20662;-65
2021/05/28 00:55:47;;;;;;;16.43;13.10;;;;;;;13.37;69.73;97124.78;5051087;28;20596;-66
2021/05/28 00:58:13;;;;;;;13.10;11.60;;;;;;;12.74;71.02;97125.47;5048270;28;20429;-66
2021/05/28 01:00:38;;;;;;;13.80;11.17;;;;;;;13.20;69.05;97124.84;5045026;28;20194;-65
2021/05/28 01:03:04;;;;;;;13.30;11.20;;;;;;;13.40;68.07;97121.00;5048957;28;20218;-67
2021/05/28 01:05:30;;;;;;;12.80;11.33;;;;;;;13.31;67.91;97121.00;5049166;28;20211;-65
2021/05/28 01:07:55;;;;;;;11.10;9.90;;;;;;;13.30;67.95;97124.63;5051468;28;20249;-65
2021/05/28 01:10:21;;;;;;;10.33;9.23;;;;;;;13.13;67.08;97125.69;5052105;28;20187;-66
2021/05/28 01:12:47;;;;;;;9.83;7.87;;;;;;;13.25;66.49;97124.31;5051636;28;20186;-65
2021/05/28 01:15:13;;;;;;;9.80;8.00;;;;;;;13.31;66.23;97126.28;5052995;28;20528;-65
2021/05/28 01:17:39;;;;;;;9.13;7.10;;;;;;;13.44;64.94;97136.28;5054487;28;20194;-67
2021/05/28 01:20:06;;;;;;;7.63;6.90;;;;;;;13.49;64.05;97133.94;5054275;28;20279;-66
2021/05/28 01:22:32;;;;;;;6.20;5.60;;;;;;;13.66;63.77;97136.50;5044793;28;20462;-66
2021/05/28 01:25:00;;;;;;;7.27;6.30;;;;;;;13.75;62.80;97131.97;5050337;28;20503;-66
2021/05/28 01:27:27;;;;;;;8.33;6.00;;;;;;;13.81;62.51;97134.75;5053662;28;20511;-65
2021/05/28 01:29:53;;;;;;;9.10;6.00;;;;;;;13.48;62.72;97136.78;5047562;28;20425;-66
2021/05/28 01:32:18;;;;;;;10.27;6.30;;;;;;;13.79;62.35;97135.91;5054232;28;20424;-66
2021/05/28 01:34:45;;;;;;;7.80;6.27;;;;;;;13.82;61.90;97138.22;5053629;28;20230;-66
2021/05/28 01:37:11;;;;;;;5.80;5.30;;;;;;;13.64;62.33;97134.03;5054068;28;20429;-66
2021/05/28 01:39:48;;;;;;;6.83;5.20;;;;;;;13.72;61.96;97127.09;5053688;28;20504;-66
2021/05/28 01:42:14;;;;;;;7.70;5.90;;;;;;;13.89;61.59;97128.59;5045758;28;20203;-66
2021/05/28 01:44:39;;;;;;;6.83;5.80;;;;;;;13.96;61.19;97126.09;5053165;28;20448;-66
2021/05/28 01:47:05;;;;;;;6.37;5.23;;;;;;;13.79;61.28;97122.75;5053542;28;20183;-65
2021/05/28 01:49:31;;;;;;;5.40;4.70;;;;;;;13.34;61.62;97122.47;5053677;28;20210;-66
2021/05/28 01:51:56;;;;;;;6.03;4.80;;;;;;;13.47;61.83;97129.84;5053396;28;20260;-66
2021/05/28 01:54:22;;;;;;;5.13;4.63;;;;;;;13.73;60.83;97132.16;5052342;28;20179;-66
2021/05/28 01:56:49;;;;;;;4.87;4.47;;;;;;;13.89;60.35;97125.97;5051436;28;20270;-66
2021/05/28 01:59:23;;;;;;;6.53;5.60;;;;;;;13.94;60.00;97128.06;5049463;28;20414;-66
2021/05/28 02:01:50;;;;;;;5.17;4.17;;;;;;;13.89;59.81;97127.81;5052087;28;20428;-66
2021/05/28 02:04:16;;;;;;;4.63;4.20;;;;;;;14.07;59.44;97125.69;5053026;28;20461;-66
2021/05/28 02:06:41;;;;;;;5.10;4.60;;;;;;;13.95;59.77;97116.53;5019181;28;20800;-66
2021/05/28 02:09:07;;;;;;;6.17;4.83;;;;;;;13.47;61.98;97124.59;5054010;28;20429;-66
2021/05/28 02:11:32;;;;;;;11.07;4.83;;;;;;;13.79;60.96;97123.59;5054390;28;20191;-65
2021/05/28 02:13:58;;;;;;;6.40;4.33;;;;;;;13.98;60.45;97124.09;5050698;28;20595;-65
2021/05/28 02:16:24;;;;;;;6.33;4.70;;;;;;;14.07;59.86;97124.88;5053806;28;20202;-65
2021/05/28 02:18:49;;;;;;;6.10;4.63;;;;;;;14.03;59.64;97119.13;5052982;28;20205;-66
2021/05/28 02:21:15;;;;;;;5.70;4.53;;;;;;;14.12;59.58;97125.13;5048289;28;20184;-66
2021/05/28 02:23:40;;;;;;;5.93;4.20;;;;;;;14.07;59.41;97119.59;5050939;28;20290;-66
2021/05/28 02:26:06;;;;;;;6.17;4.80;;;;;;;13.89;59.86;97118.06;5053335;28;20700;-66
2021/05/28 02:28:32;;;;;;;8.10;4.20;;;;;;;13.86;59.56;97123.69;5050620;28;20202;-66
2021/05/28 02:30:57;;;;;;;4.57;4.00;;;;;;;14.01;58.75;97115.03;5051776;28;20186;-66
2021/05/28 02:33:23;;;;;;;5.00;3.70;;;;;;;14.06;59.00;97123.22;5052821;28;20182;-67
2021/05/28 02:35:48;;;;;;;4.93;3.87;;;;;;;14.13;58.81;97119.72;5053135;28;20202;-65
2021/05/28 02:38:14;;;;;;;4.87;4.13;;;;;;;14.16;58.87;97121.16;5052227;28;20521;-65
2021/05/28 02:40:40;;;;;;;7.33;3.83;;;;;;;14.12;58.11;97125.13;5052851;28;20202;-66
2021/05/28 02:43:05;;;;;;;5.33;4.43;;;;;;;13.90;58.56;97130.25;5052522;28;20303;-65
2021/05/28 02:45:31;;;;;;;8.33;4.47;;;;;;;13.57;59.82;97125.19;5052573;28;20199;-65
2021/05/28 02:47:58;;;;;;;5.93;4.37;;;;;;;13.57;59.82;97127.00;5052050;28;20745;-65
2021/05/28 02:50:25;;;;;;;5.83;4.47;;;;;;;13.48;59.58;97121.78;5051669;28;20179;-66
2021/05/28 02:52:50;;;;;;;7.27;4.47;;;;;;;13.81;58.71;97123.41;5053260;28;20418;-65
2021/05/28 02:55:16;;;;;;;5.50;4.17;;;;;;;13.46;59.61;97133.47;5052210;28;20861;-67
2021/05/28 02:57:41;;;;;;;6.40;3.70;;;;;;;13.26;60.14;97123.31;5052827;28;20184;-66
2021/05/28 03:00:07;;;;;;;4.10;3.70;;;;;;;13.30;59.53;97122.00;5046124;28;20562;-66
2021/05/28 03:02:33;;;;;;;7.03;4.93;;;;;;;13.59;58.72;97125.84;5053182;28;20190;-66
2021/05/28 03:04:59;;;;;;;6.77;3.57;;;;;;;13.46;59.07;97120.31;5052905;28;20442;-66
2021/05/28 03:07:24;;;;;;;5.73;4.17;;;;;;;13.41;59.63;97120.84;5050396;28;20187;-66
2021/05/28 03:09:50;;;;;;;4.83;4.10;;;;;;;13.10;60.90;97124.22;5048442;28;20458;-66
2021/05/28 03:12:15;;;;;;;7.37;4.70;;;;;;;12.81;62.50;97130.06;5053800;28;20680;-66
2021/05/28 03:14:42;;;;;;;3.87;3.57;;;;;;;13.08;61.84;97133.28;5050347;28;20214;-66
2021/05/28 03:17:08;;;;;;;5.57;5.07;;;;;;;13.01;61.60;97131.31;5046755;28;20246;-66
2021/05/28 03:19:39;;;;;;;19.57;9.33;;;;;;;13.34;60.82;97125.09;5030325;28;20929;-65
2021/05/28 03:24:40;;;;;;;13.00;6.60;;;;;;;13.51;60.40;97123.22;5032449;28;20480;-66
2021/05/28 03:27:05;;;;;;;38.60;11.30;;;;;;;13.58;60.16;97121.56;5040975;28;20963;-66
2021/05/28 03:29:31;;;;;;;33.77;11.40;;;;;;;13.52;60.33;97122.25;5047071;28;20531;-65
2021/05/28 03:31:57;;;;;;;63.40;17.30;;;;;;;13.61;59.99;97125.66;5031269;28;20274;-67
2021/05/28 03:34:22;;;;;;;19.47;8.43;;;;;;;13.42;60.45;97124.28;5023517;28;20176;-67
2021/05/28 03:36:48;;;;;;;10.63;5.80;;;;;;;13.15;61.53;97121.06;5031608;28;20184;-65
2021/05/28 03:39:14;;;;;;;6.77;5.63;;;;;;;13.18;61.97;97123.38;5030527;28;20670;-66
2021/05/28 03:41:40;;;;;;;8.10;5.33;;;;;;;13.12;61.64;97127.50;5031688;28;20453;-65
2021/05/28 03:44:05;;;;;;;7.53;5.70;;;;;;;13.20;61.43;97124.03;5029920;28;20203;-65
2021/05/28 03:46:31;;;;;;;10.87;6.10;;;;;;;13.45;60.96;97126.56;5033345;28;20200;-65
2021/05/28 03:48:57;;;;;;;6.60;5.57;;;;;;;13.42;61.00;97125.09;5040603;28;20183;-67
2021/05/28 03:51:23;;;;;;;6.57;4.90;;;;;;;13.52;60.81;97122.25;5048810;28;20767;-66
2021/05/28 03:53:49;;;;;;;5.63;4.83;;;;;;;13.39;60.61;97127.22;5040699;28;20180;-66
2021/05/28 03:56:15;;;;;;;10.80;5.90;;;;;;;12.93;62.07;97118.19;5041500;28;20289;-66
2021/05/28 03:58:42;;;;;;;9.60;5.97;;;;;;;12.69;63.15;97121.69;5040063;28;20426;-66
2021/05/28 04:01:07;;;;;;;9.30;6.43;;;;;;;12.48;64.42;97124.84;5042351;28;20430;-66
2021/05/28 04:03:33;;;;;;;8.33;6.03;;;;;;;12.56;64.11;97123.03;5040735;28;20477;-67
2021/05/28 04:05:59;;;;;;;8.00;6.50;;;;;;;12.59;64.11;97121.91;5046735;28;20207;-65
2021/05/28 04:08:24;;;;;;;7.57;6.30;;;;;;;12.64;64.35;97118.78;5039006;28;20191;-65
2021/05/28 04:10:50;;;;;;;18.50;7.73;;;;;;;12.55;64.39;97110.06;5031890;28;20179;-66
2021/05/28 04:13:15;;;;;;;25.90;11.13;;;;;;;12.37;65.32;97112.91;5030732;28;20183;-65
2021/05/28 04:15:41;;;;;;;105.43;25.80;;;;;;;12.00;67.12;97112.41;5031173;28;20291;-66
2021/05/28 04:18:07;;;;;;;76.13;19.03;;;;;;;11.98;67.78;97117.81;5033514;28;20717;-65
2021/05/28 04:20:32;;;;;;;16.60;8.30;;;;;;;12.13;66.98;97117.97;5029905;28;20322;-66
2021/05/28 04:22:58;;;;;;;11.57;8.00;;;;;;;12.19;66.98;97108.63;5031067;28;20259;-65
2021/05/28 04:25:24;;;;;;;10.43;8.37;;;;;;;12.28;66.76;97112.06;5030557;28;20212;-66
2021/05/28 04:27:49;;;;;;;11.07;7.70;;;;;;;12.38;66.91;97115.34;5030544;28;20481;-65
2021/05/28 04:30:21;;;;;;;14.03;8.67;;;;;;;12.28;66.82;97118.16;5032274;28;20203;-66
2021/05/28 04:32:47;;;;;;;9.90;7.57;;;;;;;12.08;67.83;97120.31;5031114;28;20258;-66
2021/05/28 04:35:12;;;;;;;9.47;7.30;;;;;;;12.06;67.48;97130.16;5029885;28;20534;-65
2021/05/28 04:37:38;;;;;;;11.30;8.00;;;;;;;11.59;70.21;97126.28;5030915;28;20659;-66
2021/05/28 04:40:04;;;;;;;21.63;10.30;;;;;;;11.94;68.52;97128.78;5032173;28;20323;-66
2021/05/28 04:42:30;;;;;;;65.77;19.57;;;;;;;12.12;68.55;97137.34;5033366;28;20188;-65
2021/05/28 04:44:55;;;;;;;27.53;11.37;;;;;;;12.35;67.25;97131.44;5034390;28;20444;-66
2021/05/28 04:47:21;;;;;;;83.30;24.40;;;;;;;12.25;67.64;97133.41;5037155;28;20190;-66
2021/05/28 04:49:47;;;;;;;37.80;14.00;;;;;;;12.44;67.00;97133.09;5037675;28;20657;-65
2021/05/28 04:52:12;;;;;;;16.17;9.37;;;;;;;12.33;67.88;97138.69;5035807;28;20187;-65
2021/05/28 04:54:38;;;;;;;11.30;8.63;;;;;;;12.50;67.58;97149.16;5032989;28;20207;-65
2021/05/28 04:57:03;;;;;;;18.73;9.20;;;;;;;12.57;66.96;97139.66;5034561;28;20187;-66
2021/05/28 04:59:29;;;;;;;10.73;7.83;;;;;;;12.83;66.33;97133.34;5035167;28;20635;-65
2021/05/28 05:01:54;;;;;;;9.70;8.10;;;;;;;12.66;66.34;97143.09;5035024;28;20199;-66
2021/05/28 05:04:20;;;;;;;10.10;8.77;;;;;;;12.84;66.87;97145.53;5034318;28;20215;-66
2021/05/28 05:06:46;;;;;;;13.53;9.00;;;;;;;12.75;67.05;97148.16;5037431;28;20421;-66
2021/05/28 05:09:12;;;;;;;10.13;7.80;;;;;;;13.05;65.93;97153.69;5036997;28;20182;-66
2021/05/28 05:11:37;;;;;;;11.40;8.60;;;;;;;12.86;66.60;97149.63;5033173;28;20187;-67
2021/05/28 05:14:03;;;;;;;13.10;9.00;;;;;;;12.75;66.09;97153.41;5034284;28;20183;-68
2021/05/28 05:16:28;;;;;;;25.93;8.97;;;;;;;12.93;64.87;97155.03;5034452;28;20215;-65
2021/05/28 05:18:54;;;;;;;9.00;8.07;;;;;;;12.97;64.41;97163.41;5032619;28;20261;-67
2021/05/28 05:21:20;;;;;;;10.60;8.20;;;;;;;12.50;65.70;97159.69;5034537;28;20187;-67
2021/05/28 05:23:45;;;;;;;9.37;7.70;;;;;;;12.91;64.42;97151.75;5032819;28;20574;-67
2021/05/28 05:26:11;;;;;;;13.03;8.07;;;;;;;12.96;64.23;97161.75;5038236;28;20262;-68
2021/05/28 05:28:36;;;;;;;10.67;8.20;;;;;;;12.71;64.43;97167.06;5054548;28;20183;-67
2021/05/28 05:31:03;;;;;;;9.27;8.17;;;;;;;12.97;63.90;97164.22;5054828;28;20625;-66
2021/05/28 05:33:28;;;;;;;15.10;10.03;;;;;;;12.85;64.20;97160.31;5054141;28;20179;-66
2021/05/28 05:35:54;;;;;;;11.57;8.90;;;;;;;12.36;64.96;97177.75;5054428;28;20464;-67
2021/05/28 05:38:20;;;;;;;8.57;7.73;;;;;;;13.06;63.29;97160.59;5053933;28;20262;-66
2021/05/28 05:40:45;;;;;;;14.00;7.90;;;;;;;13.05;62.94;97169.47;5055057;28;20206;-67
2021/05/28 05:43:11;;;;;;;11.10;8.50;;;;;;;12.99;63.12;97170.13;5043695;28;20352;-67
2021/05/28 05:45:36;;;;;;;15.10;8.90;;;;;;;13.17;62.62;97163.81;5035238;28;20204;-67
2021/05/28 05:48:02;;;;;;;12.03;8.93;;;;;;;12.74;63.28;97162.28;5035730;28;20196;-66
2021/05/28 05:50:28;;;;;;;12.70;8.80;;;;;;;12.89;63.17;97172.13;5034887;28;20638;-66
2021/05/28 05:52:54;;;;;;;17.30;10.17;;;;;;;13.05;62.97;97173.88;5037270;28;20184;-67
2021/05/28 05:55:21;;;;;;;11.17;8.60;;;;;;;13.00;63.18;97184.91;5039589;28;20448;-66
2021/05/28 05:57:47;;;;;;;16.70;8.83;;;;;;;13.42;61.76;97179.56;5051457;28;20226;-66
2021/05/28 06:00:13;;;;;;;13.53;9.17;;;;;;;13.77;60.63;97187.94;5052949;28;20421;-66
2021/05/28 06:02:39;;;;;;;11.27;7.40;;;;;;;13.71;60.83;97191.28;5054946;28;20266;-67
2021/05/28 06:05:06;;;;;;;12.23;7.90;;;;;;;13.49;61.85;97185.78;5046028;28;20533;-67
2021/05/28 06:07:31;;;;;;;13.53;8.60;;;;;;;13.59;61.51;97196.94;5054665;28;20185;-67
2021/05/28 06:09:57;;;;;;;15.17;8.10;;;;;;;13.43;61.71;97189.09;5053458;28;20421;-67
2021/05/28 06:12:23;;;;;;;12.90;7.73;;;;;;;13.92;59.85;97190.69;5036867;28;20271;-67
2021/05/28 06:14:48;;;;;;;14.23;7.70;;;;;;;14.06;59.45;97194.38;5045281;28;20206;-67
2021/05/28 06:17:14;;;;;;;8.93;7.43;;;;;;;14.21;59.30;97195.25;5052924;28;20625;-66
2021/05/28 06:19:39;;;;;;;15.47;7.10;;;;;;;14.41;58.57;97190.34;5054504;28;20183;-66
2021/05/28 06:22:05;;;;;;;16.00;8.50;;;;;;;14.46;58.02;97194.25;5050117;28;20528;-65
2021/05/28 06:24:31;;;;;;;13.03;7.13;;;;;;;14.30;58.57;97196.03;5054029;28;20244;-66
2021/05/28 06:26:56;;;;;;;12.30;8.13;;;;;;;14.56;58.58;97200.94;5049964;28;20179;-66
2021/05/28 06:29:22;;;;;;;11.83;8.33;;;;;;;13.58;60.87;97194.47;5047030;28;20252;-67
2021/05/28 06:31:47;;;;;;;12.63;7.80;;;;;;;14.05;60.20;97198.81;5055477;28;20191;-67
2021/05/28 06:34:13;;;;;;;10.37;7.37;;;;;;;14.26;59.18;97192.09;5056900;28;20175;-66
2021/05/28 06:36:39;;;;;;;11.57;7.47;;;;;;;14.87;57.65;97194.72;5047584;28;20237;-67
2021/05/28 06:39:07;;;;;;;9.10;6.37;;;;;;;15.24;55.92;97194.03;5055930;28;20187;-67
2021/05/28 06:41:33;;;;;;;9.30;7.07;;;;;;;15.47;55.11;97194.75;5055165;28;20224;-67
2021/05/28 06:43:58;;;;;;;11.80;7.10;;;;;;;15.07;55.67;97202.13;5054925;28;20454;-67
2021/05/28 06:46:24;;;;;;;8.93;6.20;;;;;;;15.41;55.58;97211.31;5054549;28;20234;-66
2021/05/28 06:48:52;;;;;;;12.53;6.97;;;;;;;15.45;54.96;97207.31;5054701;28;20179;-66
2021/05/28 06:51:17;;;;;;;11.20;6.67;;;;;;;14.48;56.78;97203.63;5053396;28;20286;-67
2021/05/28 06:53:43;;;;;;;12.23;6.70;;;;;;;14.90;56.61;97201.47;5036558;28;20429;-66
2021/05/28 06:56:09;;;;;;;7.03;6.33;;;;;;;15.17;54.91;97205.31;5050718;28;20250;-66
2021/05/28 06:58:34;;;;;;;9.37;5.67;;;;;;;14.93;54.88;97206.41;5058298;28;20638;-65
2021/05/28 07:01:00;;;;;;;9.57;5.87;;;;;;;15.41;54.21;97200.75;5054498;28;20187;-66
2021/05/28 07:03:25;;;;;;;8.50;5.70;;;;;;;15.41;53.65;97200.75;5049251;28;20203;-67
2021/05/28 07:05:51;;;;;;;10.47;6.23;;;;;;;15.81;53.11;97201.25;5051383;28;20198;-66
2021/05/28 07:08:17;;;;;;;7.93;6.30;;;;;;;16.27;51.78;97204.59;5051845;28;20190;-66
2021/05/28 07:10:42;;;;;;;9.83;6.50;;;;;;;16.38;50.88;97214.66;5053813;28;20760;-67
2021/05/28 07:13:08;;;;;;;7.20;5.80;;;;;;;15.93;51.80;97211.38;5048296;28;20186;-67
2021/05/28 07:15:34;;;;;;;12.53;6.27;;;;;;;16.02;52.13;97226.09;5044309;28;20211;-66
2021/05/28 07:17:59;;;;;;;8.90;6.00;;;;;;;15.78;52.51;97214.84;5054047;28;20187;-64
2021/05/28 07:20:25;;;;;;;7.77;5.40;;;;;;;16.26;51.38;97224.13;5053365;28;20317;-67
2021/05/28 07:22:51;;;;;;;7.00;5.20;;;;;;;15.79;50.58;97224.41;5043485;28;20225;-66
2021/05/28 07:25:16;;;;;;;6.10;5.20;;;;;;;15.76;50.62;97219.47;5056139;28;20456;-65
2021/05/28 07:27:42;;;;;;;9.63;5.67;;;;;;;16.19;50.33;97223.25;5043741;28;20646;-67
2021/05/28 07:30:09;;;;;;;10.73;6.07;;;;;;;15.87;51.39;97223.50;5044398;28;20571;-66
2021/05/28 07:32:36;;;;;;;6.90;4.70;;;;;;;16.39;49.64;97218.16;5052723;28;20195;-65
2021/05/28 07:35:02;;;;;;;7.30;5.70;;;;;;;16.45;50.02;97217.38;5053884;28;20849;-66
2021/05/28 07:37:27;;;;;;;8.83;6.00;;;;;;;16.48;49.75;97218.84;5051866;28;20414;-66
2021/05/28 07:39:53;;;;;;;7.57;5.53;;;;;;;16.48;49.54;97221.50;5062831;28;20495;-66
2021/05/28 07:42:19;;;;;;;9.30;5.40;;;;;;;16.51;49.16;97216.63;5067467;28;20195;-68
2021/05/28 07:44:45;;;;;;;8.30;5.80;;;;;;;16.47;49.08;97225.13;5067746;28;20211;-66
2021/05/28 07:47:11;;;;;;;8.93;6.17;;;;;;;16.58;48.81;97217.50;5062872;28;20528;-67
2021/05/28 07:49:38;;;;;;;8.93;5.53;;;;;;;17.57;46.72;97219.44;5053742;28;20433;-66
2021/05/28 07:52:04;;;;;;;8.73;5.30;;;;;;;17.77;45.61;97209.72;5049943;28;20985;-66
2021/05/28 07:54:29;;;;;;;9.17;5.40;;;;;;;16.91;47.68;97217.97;5046312;28;20921;-67
2021/05/28 07:56:55;;;;;;;6.07;4.80;;;;;;;17.63;46.64;97223.94;5038047;28;20423;-66
2021/05/28 07:59:21;;;;;;;7.33;5.50;;;;;;;18.03;44.87;97223.28;5038618;28;20187;-67
2021/05/28 08:01:46;;;;;;;8.30;5.63;;;;;;;18.49;44.24;97227.03;5037884;28;20192;-67
2021/05/28 08:04:12;;;;;;;8.63;4.90;;;;;;;18.92;42.42;97220.53;5046731;28;20675;-67
2021/05/28 08:06:37;;;;;;;6.70;4.40;;;;;;;19.15;42.18;97220.94;5053810;28;20701;-67
2021/05/28 08:09:03;;;;;;;4.90;4.17;;;;;;;18.32;42.91;97218.66;5044698;28;20187;-68
2021/05/28 08:11:29;;;;;;;6.20;4.00;;;;;;;17.34;45.39;97224.00;5053702;28;20190;-67
2021/05/28 08:13:54;;;;;;;5.90;4.40;;;;;;;17.66;44.90;97220.88;5043183;28;20202;-67
2021/05/28 08:16:20;;;;;;;7.23;4.17;;;;;;;18.17;44.31;97217.00;5036752;28;20210;-67
2021/05/28 08:18:46;;;;;;;13.90;5.70;;;;;;;16.93;47.56;97229.19;5041558;28;20186;-66
2021/05/28 08:21:12;;;;;;;9.73;4.90;;;;;;;16.25;48.91;97219.84;5045959;28;20642;-66
2021/05/28 08:23:39;;;;;;;8.77;5.53;;;;;;;16.22;49.09;97233.44;5041877;28;20234;-67
2021/05/28 08:26:04;;;;;;;6.93;5.03;;;;;;;17.19;46.79;97223.28;5049116;28;20450;-66
2021/05/28 08:28:32;;;;;;;10.30;5.20;;;;;;;16.49;48.45;97225.78;5057209;28;20483;-68
2021/05/28 08:30:58;;;;;;;7.83;4.97;;;;;;;17.73;45.91;97224.38;5043956;28;20198;-67
2021/05/28 08:33:24;;;;;;;6.13;5.37;;;;;;;17.16;46.41;97226.31;5045497;28;20414;-67
2021/05/28 08:35:49;;;;;;;6.60;4.70;;;;;;;17.98;43.97;97221.22;5045117;28;20447;-68
2021/05/28 08:38:15;;;;;;;5.00;4.10;;;;;;;17.07;46.14;97230.13;5054554;28;20426;-68
2021/05/28 08:40:40;;;;;;;5.40;3.90;;;;;;;17.53;44.49;97220.81;5062621;28;20276;-69
2021/05/28 08:43:06;;;;;;;7.90;3.60;;;;;;;17.81;43.32;97228.69;5055201;28;20576;-69
2021/05/28 08:45:40;;;;;;;6.33;3.00;;;;;;;18.24;40.60;97215.19;5058540;28;20282;-67
2021/05/28 08:48:07;;;;;;;6.57;3.30;;;;;;;18.45;41.13;97221.34;5051495;28;20187;-68
2021/05/28 08:50:34;;;;;;;4.83;2.73;;;;;;;18.64;40.21;97218.91;5051289;28;20906;-67
2021/05/28 08:53:01;;;;;;;7.57;3.40;;;;;;;18.65;39.82;97220.56;5052253;28;20425;-67
2021/05/28 08:55:27;;;;;;;3.77;3.40;;;;;;;18.43;40.82;97228.69;5033828;28;20433;-68
2021/05/28 08:57:53;;;;;;;4.10;3.80;;;;;;;18.96;39.98;97221.78;5048467;28;20413;-66
2021/05/28 09:00:19;;;;;;;4.40;4.00;;;;;;;18.71;40.49;97217.88;5051183;28;20182;-67
2021/05/28 09:02:45;;;;;;;6.70;4.27;;;;;;;18.63;40.70;97220.75;5052123;28;20776;-68
2021/05/28 09:05:16;;;;;;;4.53;3.93;;;;;;;18.96;40.26;97213.81;5049665;28;20463;-68
2021/05/28 09:07:59;;;;;;;9.47;4.47;;;;;;;18.52;41.98;97221.34;5040248;28;20183;-66
2021/05/28 09:10:29;;;;;;;4.57;4.13;;;;;;;18.58;41.74;97212.59;5035681;28;20939;-66
2021/05/28 09:13:05;;;;;;;9.60;3.87;;;;;;;17.83;43.60;97216.06;5051630;28;20417;-67
2021/05/28 09:15:31;;;;;;;5.90;4.57;;;;;;;18.45;42.34;97223.19;5052067;28;20440;-66
2021/05/28 09:17:57;;;;;;;5.80;4.73;;;;;;;18.73;41.49;97226.44;5042060;28;20929;-65
2021/05/28 09:20:23;;;;;;;5.00;4.50;;;;;;;19.45;40.19;97220.47;5027215;28;20657;-68
2021/05/28 09:23:06;;;;;;;6.00;4.67;;;;;;;19.00;41.38;97231.00;5045624;28;20508;-67
2021/05/28 09:25:54;;;;;;;10.30;4.67;;;;;;;17.71;44.30;97229.03;5051012;28;20289;-69
2021/05/28 09:28:20;;;;;;;5.40;4.87;;;;;;;17.25;45.44;97226.97;5042727;28;20421;-67
2021/05/28 09:30:55;;;;;;;7.47;4.70;;;;;;;16.93;46.41;97223.91;5039151;28;20411;-65
2021/05/28 09:33:21;;;;;;;11.20;5.00;;;;;;;17.35;45.87;97224.78;5035314;28;20470;-66
2021/05/28 09:35:51;;;;;;;5.73;5.13;;;;;;;17.59;45.17;97223.50;5041317;28;20437;-67
2021/05/28 09:38:21;;;;;;;5.20;4.70;;;;;;;17.63;44.24;97222.09;5050564;28;20838;-67
2021/05/28 09:40:47;;;;;;;6.47;3.97;;;;;;;18.33;43.15;97223.78;5053610;28;20440;-67
2021/05/28 09:43:14;;;;;;;6.37;4.60;;;;;;;18.14;43.64;97228.03;5048002;28;20983;-69
2021/05/28 09:45:41;;;;;;;5.60;4.67;;;;;;;17.37;45.68;97228.06;5042672;28;20211;-66
2021/05/28 09:48:15;;;;;;;7.70;5.20;;;;;;;16.44;47.67;97226.34;5034639;28;20796;-67
2021/05/28 09:50:44;;;;;;;8.60;5.20;;;;;;;16.82;47.34;97226.03;5043433;28;20443;-68
2021/05/28 09:53:25;;;;;;;7.40;5.33;;;;;;;17.30;46.50;97224.59;5054339;28;21105;-67
2021/05/28 09:55:51;;;;;;;6.37;4.70;;;;;;;17.45;45.30;97216.50;5041316;28;20533;-67
2021/05/28 09:58:17;;;;;;;5.53;4.90;;;;;;;17.87;44.50;97209.34;5044684;28;22213;-67
2021/05/28 10:00:42;;;;;;;5.00;4.60;;;;;;;17.68;45.22;97218.03;5050632;28;20426;-66
2021/05/28 10:03:22;;;;;;;8.13;5.20;;;;;;;18.10;44.33;97213.53;5050894;28;20728;-68
2021/05/28 10:05:51;;;;;;;5.30;4.70;;;;;;;18.73;43.26;97229.09;5043313;28;20199;-69
2021/05/28 10:08:18;;;;;;;7.50;4.80;;;;;;;19.24;41.89;97215.41;5053021;28;20449;-68
2021/05/28 10:10:45;;;;;;;6.60;4.50;;;;;;;18.92;41.55;97220.53;5047108;28;20435;-68
2021/05/28 10:13:16;;;;;;;7.57;4.50;;;;;;;18.87;42.02;97224.63;5040224;28;20969;-69
2021/05/28 10:15:47;;;;;;;6.60;4.80;;;;;;;18.52;41.94;97210.72;5041752;28;20514;-68
2021/05/28 10:18:13;;;;;;;5.87;4.60;;;;;;;18.40;42.33;97207.84;5052712;28;20418;-67
2021/05/28 10:20:41;;;;;;;10.70;4.50;;;;;;;18.68;41.27;97214.81;5050427;28;20417;-67
2021/05/28 10:23:08;;;;;;;5.13;4.67;;;;;;;18.40;42.72;97207.84;5049267;28;20446;-67
2021/05/28 10:25:35;;;;;;;9.37;4.70;;;;;;;17.79;43.70;97209.50;5053628;28;20516;-67
2021/05/28 10:28:05;;;;;;;6.90;4.67;;;;;;;17.02;44.88;97212.97;5030580;28;20429;-69
2021/05/28 10:30:38;;;;;;;6.33;5.10;;;;;;;16.70;46.43;97216.97;5056040;28;20422;-68
2021/05/28 10:33:17;;;;;;;5.23;4.73;;;;;;;17.69;44.33;97214.38;5053188;28;20861;-68
2021/05/28 10:35:48;;;;;;;6.67;5.07;;;;;;;18.25;43.60;97208.88;5053549;28;20426;-68
2021/05/28 10:38:29;;;;;;;4.97;4.47;;;;;;;18.73;41.10;97209.72;5053103;28;20475;-68
2021/05/28 10:40:56;;;;;;;5.37;3.70;;;;;;;18.17;40.50;97208.25;5052299;28;20979;-69
2021/05/28 10:43:22;;;;;;;6.87;2.60;;;;;;;18.10;38.53;97210.88;5053601;28;20547;-68
2021/05/28 10:45:53;;;;;;;4.10;2.90;;;;;;;19.40;37.04;97200.88;5054314;28;20916;-69
2021/05/28 10:48:41;;;;;;;4.60;3.03;;;;;;;18.92;38.33;97208.09;5053460;28;20721;-68
2021/05/28 10:51:22;;;;;;;4.53;3.03;;;;;;;19.28;37.09;97211.34;5052350;28;20939;-67
2021/05/28 10:53:50;;;;;;;3.97;3.53;;;;;;;18.37;39.75;97206.44;5053925;28;20413;-68
2021/05/28 10:56:16;;;;;;;2.60;2.40;;;;;;;18.88;38.76;97215.66;5049455;28;20443;-69
2021/05/28 10:59:03;;;;;;;4.50;3.37;;;;;;;18.22;39.99;97206.63;5048195;28;20495;-68
2021/05/28 11:01:32;;;;;;;5.30;3.80;;;;;;;19.33;37.04;97200.88;5052518;28;20406;-67
2021/05/28 11:04:05;;;;;;;5.10;3.20;;;;;;;19.08;38.24;97200.75;5053005;28;20461;-68
2021/05/28 11:06:32;;;;;;;3.53;3.23;;;;;;;19.56;37.20;97202.25;5054161;28;20445;-69
2021/05/28 11:09:07;;;;;;;3.30;2.90;;;;;;;20.24;35.21;97195.59;5045486;28;20479;-68
2021/05/28 11:11:36;;;;;;;2.93;2.50;;;;;;;20.01;34.43;97201.47;5049205;28;20628;-69
2021/05/28 11:14:10;;;;;;;4.07;3.10;;;;;;;20.13;35.06;97193.63;5050081;28;20908;-69
2021/05/28 11:16:57;;;;;;;4.70;2.60;;;;;;;20.71;34.63;97189.94;5054653;28;20446;-67
2021/05/28 11:19:32;;;;;;;5.43;3.10;;;;;;;20.29;34.91;97192.28;5051915;28;20925;-68
2021/05/28 11:22:00;;;;;;;2.70;2.50;;;;;;;20.82;34.18;97183.09;5049054;28;20421;-69
2021/05/28 11:24:50;;;;;;;8.83;3.00;;;;;;;21.62;33.48;97187.63;5052894;28;20453;-67
2021/05/28 11:27:39;;;;;;;5.17;2.97;;;;;;;19.39;36.89;97194.75;5054160;28;20421;-67
2021/05/28 11:30:05;;;;;;;6.80;3.70;;;;;;;18.82;37.35;97189.09;5021959;28;20425;-68
2021/05/28 11:32:58;;;;;;;5.00;3.57;;;;;;;19.60;36.53;97187.50;5054483;28;20421;-67